Gordon A Keenan — WDG6853 — position and weather

sailwx.info

Track history (hours):
 
Tides and Currents Weather Stations Pressure Air Temp Water Temp Dewpoint Dewpoint Depression Visibility Wind Speed Wind Dir Waves Ship Positions

Gordon A Keenan

Owner: Higman Barge Lines, Inc., Orange, TX. More information available from US FCC via Universal Licensing System and Coast Guard Vessel Documentation Center.

Last reported at 2017-Aug-21 13:52 UTC. Time now 2017-Sep-22 17:23 UTC.
Position N 29°33' W 090°26'.
Warning: this ship's position is 32 days out of date.

Length 24 m; draft 8.6 m.

Type: Towing. MMSI: 367561370.

Date/timePositionNaut miles runAvg speedWind from/ knotsBaromVisibWave heightAir tempDewpointWater temp
2017-Aug-21 13:52N 29°33' W 090°26'2 5.7
2017-Aug-21 13:30N 29°33' W 090°28'3 5.6
2017-Aug-21 13:00N 29°34' W 090°32'3 5.4
2017-Aug-21 12:31N 29°34' W 090°35'2 4.4
2017-Aug-21 12:00N 29°35' W 090°37'3 5.2
2017-Aug-21 11:30N 29°36' W 090°40'2 4.0
2017-Aug-21 11:00N 29°37' W 090°42'2 3.5
2017-Aug-21 10:31N 29°35' W 090°43'2 3.7
2017-Aug-21 10:00N 29°34' W 090°44'2 4.7
2017-Aug-21 09:30N 29°32' W 090°46'3 5.8
2017-Aug-21 09:01N 29°32' W 090°49'3 5.6
2017-Aug-21 08:31N 29°32' W 090°53'3 5.6
2017-Aug-21 07:59N 29°34' W 090°56'3 5.3
2017-Aug-21 07:30N 29°35' W 090°58'53 4.7
2017-Aug-20 20:05N 29°51' W 091°57'1 5.4
2017-Aug-20 19:56N 29°50' W 091°58'2 5.6
2017-Aug-20 19:31N 29°50' W 092°00'3 5.6
2017-Aug-20 19:00N 29°49' W 092°03'3 5.5
2017-Aug-20 18:31N 29°48' W 092°06'2 5.0
2017-Aug-20 18:01N 29°47' W 092°09'2 4.5
2017-Aug-20 17:31N 29°47' W 092°11'0 0.9
2017-Aug-20 17:00N 29°47' W 092°11'1 1.2
2017-Aug-20 16:31N 29°47' W 092°12'0 0.0
2017-Aug-20 16:01N 29°47' W 092°12'0 0.0
2017-Aug-20 15:31N 29°47' W 092°12'0 0.0
2017-Aug-20 15:01N 29°47' W 092°12'0 0.0
2017-Aug-20 14:31N 29°47' W 092°12'0 0.0
2017-Aug-20 14:01N 29°47' W 092°12'0 0.0
2017-Aug-20 13:31N 29°47' W 092°12'0 0.0
2017-Aug-20 13:01N 29°47' W 092°12'0 0.0
2017-Aug-20 12:31N 29°47' W 092°12'0 0.0
2017-Aug-20 12:01N 29°47' W 092°12'0 0.0
2017-Aug-20 11:30N 29°47' W 092°12'0 0.0
2017-Aug-20 11:01N 29°47' W 092°12'0 0.0
2017-Aug-20 10:31N 29°47' W 092°12'1 2.3
2017-Aug-20 10:00N 29°47' W 092°13'3 5.3
2017-Aug-20 09:31N 29°48' W 092°16'3 5.1
2017-Aug-20 09:01N 29°50' W 092°18'2 3.6
2017-Aug-20 08:30N 29°51' W 092°20'3 3.7
2017-Aug-20 07:41N 29°52' W 092°23'1 5.2
2017-Aug-20 07:30N 29°53' W 092°23'9 5.5
2017-Aug-20 05:52N 29°55' W 092°34'26 4.3
2017-Aug-19 23:53N 29°56' W 093°03'1 3.1
2017-Aug-19 23:30N 29°56' W 093°05'2 3.9
2017-Aug-19 23:01N 29°56' W 093°07'2 3.8
2017-Aug-19 22:30N 29°56' W 093°09'2 3.8
2017-Aug-19 22:01N 29°57' W 093°11'2 4.0
2017-Aug-19 21:31N 29°59' W 093°12'2 3.8
2017-Aug-19 21:00N 30°00' W 093°14'2 3.5
2017-Aug-19 20:31N 30°02' W 093°15'2 3.4
2017-Aug-19 20:01N 30°03' W 093°16'2 4.6
2017-Aug-19 19:31N 30°05' W 093°17'1 2.5
2017-Aug-19 19:00N 30°06' W 093°18'0 0.0
2017-Aug-19 18:31N 30°06' W 093°18'0 0.0
2017-Aug-19 18:01N 30°06' W 093°18'0 0.0
2017-Aug-19 17:30N 30°06' W 093°18'0 0.0
2017-Aug-19 17:01N 30°06' W 093°18'0 0.0
2017-Aug-19 16:30N 30°06' W 093°18'0 0.0
2017-Aug-19 16:01N 30°06' W 093°18'0 0.8
2017-Aug-19 15:31N 30°06' W 093°19'2 3.8
2017-Aug-19 15:00N 30°05' W 093°20'3 3.3
2017-Aug-19 13:59N 30°04' W 093°24'2 4.6
2017-Aug-19 13:30N 30°04' W 093°26'2 4.6
2017-Aug-19 13:01N 30°04' W 093°29'2 4.7
2017-Aug-19 12:31N 30°04' W 093°32'2 4.6
2017-Aug-19 12:00N 30°04' W 093°34'2 4.9
2017-Aug-19 11:31N 30°04' W 093°37'3 5.3
2017-Aug-19 11:00N 30°04' W 093°40'2 4.4
2017-Aug-19 10:29N 30°03' W 093°43'2 4.4
2017-Aug-19 09:56N 30°01' W 093°45'8 1.7
2017-Aug-19 05:36N 29°59' W 093°53'0 0.0
2017-Aug-19 05:27N 29°59' W 093°53'  
2017-Aug-16 22:43N 30°03' W 093°43'1 7.1
2017-Aug-16 22:31N 30°04' W 093°41'3 6.9
2017-Aug-16 22:00N 30°04' W 093°37'3 6.0
2017-Aug-16 21:30N 30°04' W 093°34'3 5.3
2017-Aug-16 21:01N 30°04' W 093°31'2 4.9
2017-Aug-16 20:31N 30°04' W 093°28'2 4.9
2017-Aug-16 20:01N 30°04' W 093°25'2 4.6
2017-Aug-16 19:31N 30°04' W 093°22'2 4.4
2017-Aug-16 19:01N 30°05' W 093°20'2 3.3
2017-Aug-16 18:31N 30°06' W 093°19'1 1.6
2017-Aug-16 18:01N 30°05' W 093°19'0 1.0
2017-Aug-16 17:31N 30°05' W 093°20'1 2.6
2017-Aug-16 17:01N 30°06' W 093°19'1 2.9
2017-Aug-16 16:31N 30°05' W 093°18'2 3.0
2017-Aug-16 16:00N 30°04' W 093°16'0 0.2
2017-Aug-16 15:31N 30°04' W 093°16'0 0.0
2017-Aug-16 15:01N 30°04' W 093°16'0 0.0
2017-Aug-16 14:31N 30°04' W 093°16'0 0.0
2017-Aug-16 14:01N 30°04' W 093°16'0 0.0
2017-Aug-16 13:31N 30°04' W 093°16'0 0.0
2017-Aug-16 13:00N 30°04' W 093°16'1 1.7
2017-Aug-16 12:30N 30°03' W 093°16'2 3.5
2017-Aug-16 12:01N 30°02' W 093°15'2 3.6
2017-Aug-16 11:31N 30°00' W 093°14'2 4.8
2017-Aug-16 11:00N 29°59' W 093°12'2 4.4
2017-Aug-16 10:31N 29°57' W 093°10'2 4.2
2017-Aug-16 09:57N 29°56' W 093°08'2 4.7
2017-Aug-16 09:29N 29°56' W 093°05'2 4.5
2017-Aug-16 09:00N 29°56' W 093°03'35 4.6
2017-Aug-16 01:23N 29°52' W 092°23'2 4.3
2017-Aug-16 00:59N 29°51' W 092°21'1 2.5
2017-Aug-16 00:31N 29°51' W 092°20'2 3.5
2017-Aug-16 00:01N 29°50' W 092°18'2 4.6
2017-Aug-15 23:30N 29°49' W 092°16'2 4.9
2017-Aug-15 23:01N 29°48' W 092°14'2 4.7
2017-Aug-15 22:31N 29°47' W 092°11'2 3.9
2017-Aug-15 22:01N 29°47' W 092°09'2 4.9
2017-Aug-15 21:31N 29°48' W 092°06'0 0.4
2017-Aug-15 21:01N 29°48' W 092°06'2 4.4
2017-Aug-15 20:30N 29°49' W 092°04'2 4.8
2017-Aug-15 20:01N 29°49' W 092°01'1 1.1
2017-Aug-15 19:31N 29°50' W 092°00'0 0.0
2017-Aug-15 19:01N 29°50' W 092°00'0 0.0
2017-Aug-15 18:30N 29°50' W 092°00'4 3.6
2017-Aug-15 17:29N 29°51' W 091°56'6 3.7
2017-Aug-15 15:45N 29°48' W 091°49'  
2017-Aug-12 19:55N 31°59' W 091°07'3 7.4
2017-Aug-12 19:29N 32°01' W 091°04'4 6.9
2017-Aug-12 18:53N 32°05' W 091°05'3 7.0
2017-Aug-12 18:31N 32°08' W 091°06'4 7.6
2017-Aug-12 18:01N 32°07' W 091°02'4 7.3
2017-Aug-12 17:30N 32°11' W 091°00'4 7.8
2017-Aug-12 17:01N 32°14' W 090°59'4 7.8
2017-Aug-12 16:31N 32°17' W 090°56'3 6.6
2017-Aug-12 16:01N 32°20' W 090°54'2 3.8
2017-Aug-12 15:31N 32°21' W 090°57'3 6.8
2017-Aug-12 15:01N 32°22' W 091°00'3 6.9
2017-Aug-12 14:31N 32°26' W 091°01'3 6.4
2017-Aug-12 14:01N 32°27' W 091°04'3 5.6
2017-Aug-12 13:31N 32°29' W 091°07'4 7.9
2017-Aug-12 13:01N 32°33' W 091°06'4 7.7
2017-Aug-12 12:30N 32°36' W 091°08'8 4.5
2017-Aug-12 10:39N 32°44' W 091°08'6 7.6
2017-Aug-12 09:53N 32°50' W 091°09'  
Track history (hours):
 
Tides and Currents Weather Stations Pressure Air Temp Water Temp Dewpoint Dewpoint Depression Visibility Wind Speed Wind Dir Waves Ship Positions

Gordon A Keenan

Owner: Higman Barge Lines, Inc., Orange, TX. More information available from US FCC via Universal Licensing System and Coast Guard Vessel Documentation Center.

Last reported at 2017-Aug-21 13:52 UTC. Time now 2017-Sep-22 17:23 UTC.
Position N 29°33' W 090°26'.
Warning: this ship's position is 32 days out of date.

Length 24 m; draft 8.6 m.

Type: Towing. MMSI: 367561370.

Date/timePositionNaut miles runAvg speedWind from/ knotsBaromVisibWave heightAir tempDewpointWater temp
2017-Aug-21 13:52N 29°33' W 090°26'2 5.7
2017-Aug-21 13:30N 29°33' W 090°28'3 5.6
2017-Aug-21 13:00N 29°34' W 090°32'3 5.4
2017-Aug-21 12:31N 29°34' W 090°35'2 4.4
2017-Aug-21 12:00N 29°35' W 090°37'3 5.2
2017-Aug-21 11:30N 29°36' W 090°40'2 4.0
2017-Aug-21 11:00N 29°37' W 090°42'2 3.5
2017-Aug-21 10:31N 29°35' W 090°43'2 3.7
2017-Aug-21 10:00N 29°34' W 090°44'2 4.7
2017-Aug-21 09:30N 29°32' W 090°46'3 5.8
2017-Aug-21 09:01N 29°32' W 090°49'3 5.6
2017-Aug-21 08:31N 29°32' W 090°53'3 5.6
2017-Aug-21 07:59N 29°34' W 090°56'3 5.3
2017-Aug-21 07:30N 29°35' W 090°58'53 4.7
2017-Aug-20 20:05N 29°51' W 091°57'1 5.4
2017-Aug-20 19:56N 29°50' W 091°58'2 5.6
2017-Aug-20 19:31N 29°50' W 092°00'3 5.6
2017-Aug-20 19:00N 29°49' W 092°03'3 5.5
2017-Aug-20 18:31N 29°48' W 092°06'2 5.0
2017-Aug-20 18:01N 29°47' W 092°09'2 4.5
2017-Aug-20 17:31N 29°47' W 092°11'0 0.9
2017-Aug-20 17:00N 29°47' W 092°11'1 1.2
2017-Aug-20 16:31N 29°47' W 092°12'0 0.0
2017-Aug-20 16:01N 29°47' W 092°12'0 0.0
2017-Aug-20 15:31N 29°47' W 092°12'0 0.0
2017-Aug-20 15:01N 29°47' W 092°12'0 0.0
2017-Aug-20 14:31N 29°47' W 092°12'0 0.0
2017-Aug-20 14:01N 29°47' W 092°12'0 0.0
2017-Aug-20 13:31N 29°47' W 092°12'0 0.0
2017-Aug-20 13:01N 29°47' W 092°12'0 0.0
2017-Aug-20 12:31N 29°47' W 092°12'0 0.0
2017-Aug-20 12:01N 29°47' W 092°12'0 0.0
2017-Aug-20 11:30N 29°47' W 092°12'0 0.0
2017-Aug-20 11:01N 29°47' W 092°12'0 0.0
2017-Aug-20 10:31N 29°47' W 092°12'1 2.3
2017-Aug-20 10:00N 29°47' W 092°13'3 5.3
2017-Aug-20 09:31N 29°48' W 092°16'3 5.1
2017-Aug-20 09:01N 29°50' W 092°18'2 3.6
2017-Aug-20 08:30N 29°51' W 092°20'3 3.7
2017-Aug-20 07:41N 29°52' W 092°23'1 5.2
2017-Aug-20 07:30N 29°53' W 092°23'9 5.5
2017-Aug-20 05:52N 29°55' W 092°34'26 4.3
2017-Aug-19 23:53N 29°56' W 093°03'1 3.1
2017-Aug-19 23:30N 29°56' W 093°05'2 3.9
2017-Aug-19 23:01N 29°56' W 093°07'2 3.8
2017-Aug-19 22:30N 29°56' W 093°09'2 3.8
2017-Aug-19 22:01N 29°57' W 093°11'2 4.0
2017-Aug-19 21:31N 29°59' W 093°12'2 3.8
2017-Aug-19 21:00N 30°00' W 093°14'2 3.5
2017-Aug-19 20:31N 30°02' W 093°15'2 3.4
2017-Aug-19 20:01N 30°03' W 093°16'2 4.6
2017-Aug-19 19:31N 30°05' W 093°17'1 2.5
2017-Aug-19 19:00N 30°06' W 093°18'0 0.0
2017-Aug-19 18:31N 30°06' W 093°18'0 0.0
2017-Aug-19 18:01N 30°06' W 093°18'0 0.0
2017-Aug-19 17:30N 30°06' W 093°18'0 0.0
2017-Aug-19 17:01N 30°06' W 093°18'0 0.0
2017-Aug-19 16:30N 30°06' W 093°18'0 0.0
2017-Aug-19 16:01N 30°06' W 093°18'0 0.8
2017-Aug-19 15:31N 30°06' W 093°19'2 3.8
2017-Aug-19 15:00N 30°05' W 093°20'3 3.3
2017-Aug-19 13:59N 30°04' W 093°24'2 4.6
2017-Aug-19 13:30N 30°04' W 093°26'2 4.6
2017-Aug-19 13:01N 30°04' W 093°29'2 4.7
2017-Aug-19 12:31N 30°04' W 093°32'2 4.6
2017-Aug-19 12:00N 30°04' W 093°34'2 4.9
2017-Aug-19 11:31N 30°04' W 093°37'3 5.3
2017-Aug-19 11:00N 30°04' W 093°40'2 4.4
2017-Aug-19 10:29N 30°03' W 093°43'2 4.4
2017-Aug-19 09:56N 30°01' W 093°45'8 1.7
2017-Aug-19 05:36N 29°59' W 093°53'0 0.0
2017-Aug-19 05:27N 29°59' W 093°53'  
2017-Aug-16 22:43N 30°03' W 093°43'1 7.1
2017-Aug-16 22:31N 30°04' W 093°41'3 6.9
2017-Aug-16 22:00N 30°04' W 093°37'3 6.0
2017-Aug-16 21:30N 30°04' W 093°34'3 5.3
2017-Aug-16 21:01N 30°04' W 093°31'2 4.9
2017-Aug-16 20:31N 30°04' W 093°28'2 4.9
2017-Aug-16 20:01N 30°04' W 093°25'2 4.6
2017-Aug-16 19:31N 30°04' W 093°22'2 4.4
2017-Aug-16 19:01N 30°05' W 093°20'2 3.3
2017-Aug-16 18:31N 30°06' W 093°19'1 1.6
2017-Aug-16 18:01N 30°05' W 093°19'0 1.0
2017-Aug-16 17:31N 30°05' W 093°20'1 2.6
2017-Aug-16 17:01N 30°06' W 093°19'1 2.9
2017-Aug-16 16:31N 30°05' W 093°18'2 3.0
2017-Aug-16 16:00N 30°04' W 093°16'0 0.2
2017-Aug-16 15:31N 30°04' W 093°16'0 0.0
2017-Aug-16 15:01N 30°04' W 093°16'0 0.0
2017-Aug-16 14:31N 30°04' W 093°16'0 0.0
2017-Aug-16 14:01N 30°04' W 093°16'0 0.0
2017-Aug-16 13:31N 30°04' W 093°16'0 0.0
2017-Aug-16 13:00N 30°04' W 093°16'1 1.7
2017-Aug-16 12:30N 30°03' W 093°16'2 3.5
2017-Aug-16 12:01N 30°02' W 093°15'2 3.6
2017-Aug-16 11:31N 30°00' W 093°14'2 4.8
2017-Aug-16 11:00N 29°59' W 093°12'2 4.4
2017-Aug-16 10:31N 29°57' W 093°10'2 4.2
2017-Aug-16 09:57N 29°56' W 093°08'2 4.7
2017-Aug-16 09:29N 29°56' W 093°05'2 4.5
2017-Aug-16 09:00N 29°56' W 093°03'35 4.6
2017-Aug-16 01:23N 29°52' W 092°23'2 4.3
2017-Aug-16 00:59N 29°51' W 092°21'1 2.5
2017-Aug-16 00:31N 29°51' W 092°20'2 3.5
2017-Aug-16 00:01N 29°50' W 092°18'2 4.6
2017-Aug-15 23:30N 29°49' W 092°16'2 4.9
2017-Aug-15 23:01N 29°48' W 092°14'2 4.7
2017-Aug-15 22:31N 29°47' W 092°11'2 3.9
2017-Aug-15 22:01N 29°47' W 092°09'2 4.9
2017-Aug-15 21:31N 29°48' W 092°06'0 0.4
2017-Aug-15 21:01N 29°48' W 092°06'2 4.4
2017-Aug-15 20:30N 29°49' W 092°04'2 4.8
2017-Aug-15 20:01N 29°49' W 092°01'1 1.1
2017-Aug-15 19:31N 29°50' W 092°00'0 0.0
2017-Aug-15 19:01N 29°50' W 092°00'0 0.0
2017-Aug-15 18:30N 29°50' W 092°00'4 3.6
2017-Aug-15 17:29N 29°51' W 091°56'6 3.7
2017-Aug-15 15:45N 29°48' W 091°49'  
2017-Aug-12 19:55N 31°59' W 091°07'3 7.4
2017-Aug-12 19:29N 32°01' W 091°04'4 6.9
2017-Aug-12 18:53N 32°05' W 091°05'3 7.0
2017-Aug-12 18:31N 32°08' W 091°06'4 7.6
2017-Aug-12 18:01N 32°07' W 091°02'4 7.3
2017-Aug-12 17:30N 32°11' W 091°00'4 7.8
2017-Aug-12 17:01N 32°14' W 090°59'4 7.8
2017-Aug-12 16:31N 32°17' W 090°56'3 6.6
2017-Aug-12 16:01N 32°20' W 090°54'2 3.8
2017-Aug-12 15:31N 32°21' W 090°57'3 6.8
2017-Aug-12 15:01N 32°22' W 091°00'3 6.9
2017-Aug-12 14:31N 32°26' W 091°01'3 6.4
2017-Aug-12 14:01N 32°27' W 091°04'3 5.6
2017-Aug-12 13:31N 32°29' W 091°07'4 7.9
2017-Aug-12 13:01N 32°33' W 091°06'4 7.7
2017-Aug-12 12:30N 32°36' W 091°08'8 4.5
2017-Aug-12 10:39N 32°44' W 091°08'6 7.6
2017-Aug-12 09:53N 32°50' W 091°09'  

Dump ship's entire track history